Independence — WDD6659 — position and weather

sailwx.info

Track history (hours):
 
Tides and Currents Weather Stations Pressure Air Temp Water Temp Dewpoint Dewpoint Depression Visibility Wind Speed Wind Dir Waves Ship Positions

Independence

Owner: AMNAV Maritime Corporation, Oakland, CA. More information available from US FCC via Universal Licensing System and Coast Guard Vessel Documentation Center.

Last reported at 2018-May-22 19:00 UTC. Time now 2018-May-22 19:08 UTC.
Position N 33°44' W 118°17'.

Length 24 m; draft 4.9 m.

Type: Tug. MMSI: 367175860.

Date/timePositionNaut miles runAvg speedWind from/ knotsBaromVisibWave heightAir tempDewpointWater temp
2018-May-22 19:00N 33°44' W 118°17'0 0.0
2018-May-22 18:30N 33°44' W 118°17'0 0.0
2018-May-22 18:00N 33°44' W 118°17'0 0.0
2018-May-22 17:30N 33°44' W 118°17'0 0.0
2018-May-22 17:00N 33°44' W 118°17'0 0.0
2018-May-22 16:29N 33°44' W 118°17'0 0.0
2018-May-22 16:00N 33°44' W 118°17'0 0.0
2018-May-22 15:30N 33°44' W 118°17'0 0.0
2018-May-22 15:00N 33°44' W 118°17'0 0.0
2018-May-22 14:30N 33°44' W 118°17'3 5.4
2018-May-22 14:00N 33°44' W 118°13'1 2.3
2018-May-22 13:30N 33°45' W 118°13'1 1.7
2018-May-22 13:00N 33°44' W 118°12'1 2.9
2018-May-22 12:30N 33°44' W 118°11'3 5.6
2018-May-22 12:00N 33°46' W 118°13'1 1.5
2018-May-22 11:30N 33°46' W 118°13'2 3.6
2018-May-22 11:00N 33°44' W 118°13'1 2.7
2018-May-22 10:30N 33°43' W 118°12'3 5.5
2018-May-22 09:59N 33°43' W 118°15'2 3.2
2018-May-22 09:28N 33°44' W 118°17'0 0.0
2018-May-22 08:54N 33°44' W 118°17'0 0.0
2018-May-22 08:27N 33°44' W 118°17'0 0.0
2018-May-22 07:56N 33°44' W 118°17'0 0.0
2018-May-22 06:32N 33°44' W 118°17'0 0.0
2018-May-22 06:26N 33°44' W 118°17'0 0.0
2018-May-22 04:27N 33°44' W 118°17'0 0.0
2018-May-22 03:59N 33°44' W 118°17'0 0.0
2018-May-22 03:29N 33°44' W 118°17'0 0.0
2018-May-22 03:00N 33°44' W 118°17'0 0.0
2018-May-22 02:29N 33°44' W 118°17'0 0.0
2018-May-22 02:00N 33°44' W 118°17'0 0.0
2018-May-22 01:30N 33°44' W 118°17'0 0.0
2018-May-22 01:00N 33°44' W 118°17'2 4.9
2018-May-22 00:30N 33°44' W 118°14'2 4.5
2018-May-22 00:00N 33°43' W 118°16'2 4.7
2018-May-21 23:31N 33°46' W 118°16'1 1.5
2018-May-21 23:01N 33°46' W 118°15'2 3.3
2018-May-21 22:29N 33°45' W 118°16'0 1.0
2018-May-21 22:00N 33°45' W 118°16'1 2.4
2018-May-21 21:30N 33°44' W 118°16'2 4.8
2018-May-21 21:00N 33°42' W 118°15'1 2.1
2018-May-21 20:30N 33°43' W 118°15'1 2.6
2018-May-21 20:00N 33°44' W 118°17'0 0.0
2018-May-21 19:30N 33°44' W 118°17'0 0.0
2018-May-21 19:00N 33°44' W 118°17'0 0.0
2018-May-21 18:30N 33°44' W 118°17'0 0.0
2018-May-21 18:00N 33°44' W 118°17'0 0.0
2018-May-21 17:26N 33°44' W 118°17'0 0.0
2018-May-21 17:00N 33°44' W 118°17'0 0.0
2018-May-21 16:28N 33°44' W 118°17'0 0.0
2018-May-21 16:00N 33°44' W 118°17'0 0.0
2018-May-21 15:28N 33°44' W 118°17'0 0.0
2018-May-21 15:00N 33°44' W 118°17'0 0.0
2018-May-21 14:24N 33°44' W 118°17'0 0.0
2018-May-21 14:00N 33°44' W 118°17'0 0.0
2018-May-21 13:30N 33°44' W 118°17'1 2.3
2018-May-21 12:58N 33°43' W 118°15'4 8.6
2018-May-21 12:30N 33°44' W 118°11'1 1.0
2018-May-21 11:59N 33°44' W 118°11'0 0.8
2018-May-21 11:30N 33°44' W 118°11'4 8.0
2018-May-21 11:00N 33°43' W 118°16'1 1.2
2018-May-21 10:30N 33°44' W 118°17'0 0.0
2018-May-21 10:00N 33°44' W 118°17'0 0.0
2018-May-21 09:30N 33°44' W 118°17'0 0.0
2018-May-21 09:00N 33°44' W 118°17'0 0.0
2018-May-21 08:28N 33°44' W 118°17'0 0.0
2018-May-21 07:48N 33°44' W 118°17'0 0.0
2018-May-21 07:30N 33°44' W 118°17'0 0.0
2018-May-21 06:04N 33°44' W 118°17'0 0.0
2018-May-21 05:53N 33°44' W 118°17'0 0.0
2018-May-21 05:19N 33°44' W 118°17'0 0.0
2018-May-21 04:56N 33°44' W 118°17'0 0.0
2018-May-21 04:30N 33°44' W 118°17'0 0.0
2018-May-21 03:59N 33°44' W 118°17'0 0.0
2018-May-21 03:26N 33°44' W 118°17'0 0.0
2018-May-21 03:00N 33°44' W 118°17'0 0.0
2018-May-21 02:30N 33°44' W 118°17'0 0.0
2018-May-21 01:55N 33°44' W 118°17'0 0.0
2018-May-21 01:29N 33°44' W 118°17'0 0.0
2018-May-21 01:00N 33°44' W 118°17'0 0.0
2018-May-21 00:30N 33°44' W 118°17'0 0.0
2018-May-21 00:00N 33°44' W 118°17'0 0.0
2018-May-20 23:29N 33°44' W 118°17'0 0.0
2018-May-20 23:00N 33°44' W 118°17'0 0.0
2018-May-20 22:30N 33°44' W 118°17'0 0.0
2018-May-20 22:00N 33°44' W 118°17'0 0.0
2018-May-20 21:30N 33°44' W 118°17'0 0.0
2018-May-20 20:59N 33°44' W 118°17'0 0.0
2018-May-20 20:30N 33°44' W 118°17'0 0.0
2018-May-20 20:00N 33°44' W 118°17'0 0.0
2018-May-20 19:30N 33°44' W 118°17'0 0.0
2018-May-20 19:00N 33°44' W 118°17'0 0.0
2018-May-20 18:27N 33°44' W 118°17'0 0.0
2018-May-20 17:59N 33°44' W 118°17'0 0.0
2018-May-20 17:30N 33°44' W 118°17'0 0.0
2018-May-20 17:00N 33°44' W 118°17'0 0.0
2018-May-20 16:30N 33°44' W 118°17'0 0.0
2018-May-20 16:00N 33°44' W 118°17'0 0.0
2018-May-20 15:28N 33°44' W 118°17'0 0.0
2018-May-20 15:00N 33°44' W 118°17'0 0.0
2018-May-20 14:05N 33°44' W 118°17'0 0.0
2018-May-20 14:00N 33°44' W 118°17'1 2.6
2018-May-20 13:30N 33°45' W 118°16'1 1.3
2018-May-20 13:00N 33°46' W 118°16'1 1.8
2018-May-20 12:30N 33°45' W 118°16'1 1.1
2018-May-20 12:00N 33°44' W 118°17'2 4.4
2018-May-20 11:30N 33°43' W 118°15'2 3.6
2018-May-20 11:00N 33°44' W 118°16'0 0.3
2018-May-20 10:30N 33°44' W 118°17'0 0.0
2018-May-20 09:56N 33°44' W 118°17'0 0.0
2018-May-20 09:30N 33°44' W 118°17'0 0.0
2018-May-20 08:57N 33°44' W 118°17'0 0.0
2018-May-20 08:25N 33°44' W 118°17'0 0.0
2018-May-20 07:43N 33°44' W 118°17'0 0.0
2018-May-20 07:28N 33°44' W 118°17'0 0.0
2018-May-20 06:59N 33°44' W 118°17'0 0.0
2018-May-20 06:30N 33°44' W 118°17'0 0.0
2018-May-20 05:27N 33°44' W 118°17'0 0.0
2018-May-20 04:57N 33°44' W 118°17'0 0.0
2018-May-20 04:29N 33°44' W 118°17'0 0.0
2018-May-20 03:58N 33°44' W 118°17'0 0.0
2018-May-20 03:30N 33°44' W 118°17'0 0.0
2018-May-20 03:00N 33°44' W 118°17'0 0.0
2018-May-20 02:30N 33°44' W 118°17'0 0.0
2018-May-20 02:00N 33°44' W 118°17'1 1.6
2018-May-20 01:30N 33°43' W 118°16'1 1.8
2018-May-20 01:00N 33°44' W 118°15'0 0.2
2018-May-20 00:30N 33°44' W 118°15'0 0.0
2018-May-20 00:00N 33°44' W 118°15'0 0.0
2018-May-19 23:30N 33°44' W 118°15'1 2.7
2018-May-19 23:00N 33°43' W 118°16'2 3.2
2018-May-19 22:30N 33°45' W 118°16'1 1.9
2018-May-19 22:00N 33°44' W 118°16'0 0.4
2018-May-19 21:26N 33°44' W 118°17'0 0.0
2018-May-19 21:00N 33°44' W 118°17'0 0.0
2018-May-19 20:30N 33°44' W 118°17'0 0.0
2018-May-19 19:44N 33°44' W 118°17'0 0.0
2018-May-19 19:30N 33°44' W 118°17'0 0.0
2018-May-19 19:00N 33°44' W 118°17'0 0.0
2018-May-19 18:30N 33°44' W 118°17'0 0.0
2018-May-19 18:00N 33°44' W 118°17'0 0.0
2018-May-19 17:30N 33°44' W 118°17'0 0.0
2018-May-19 17:00N 33°44' W 118°17'0 0.0
2018-May-19 16:30N 33°44' W 118°17'0 0.0
2018-May-19 16:00N 33°44' W 118°17'0 0.0
2018-May-19 15:30N 33°44' W 118°17'0 0.0
2018-May-19 15:00N 33°44' W 118°17'0 0.0
2018-May-19 14:30N 33°44' W 118°17'0 0.0
2018-May-19 14:00N 33°44' W 118°17'0 0.0
2018-May-19 13:29N 33°44' W 118°17'1 1.3
2018-May-19 13:00N 33°43' W 118°16'2 4.7
2018-May-19 12:30N 33°46' W 118°17'0 0.1
2018-May-19 12:00N 33°46' W 118°17'0 0.1
2018-May-19 11:30N 33°46' W 118°17'0 0.0
2018-May-19 11:00N 33°46' W 118°17'0 0.9
2018-May-19 10:30N 33°45' W 118°16'1 2.6
2018-May-19 09:57N 33°44' W 118°17'0 0.0
2018-May-19 09:25N 33°44' W 118°17'0 0.0
2018-May-19 08:48N 33°44' W 118°17'0 0.0
2018-May-19 08:21N 33°44' W 118°17'0 0.0
2018-May-19 07:54N 33°44' W 118°17'0 0.0
2018-May-19 07:23N 33°44' W 118°17'0 0.0
2018-May-19 07:00N 33°44' W 118°17'0 0.0
2018-May-19 06:29N 33°44' W 118°17'0 0.0
2018-May-19 05:59N 33°44' W 118°17'0 0.0
2018-May-19 05:29N 33°44' W 118°17'0 0.0
2018-May-19 05:00N 33°44' W 118°17'0 0.0
2018-May-19 03:17N 33°44' W 118°17'0 0.0
2018-May-19 02:58N 33°44' W 118°17'0 0.0
2018-May-19 02:30N 33°44' W 118°17'0 0.0
2018-May-19 02:00N 33°44' W 118°17'0 0.0
2018-May-19 01:30N 33°44' W 118°17'0 0.0
2018-May-19 00:57N 33°44' W 118°17'0 0.0
2018-May-19 00:30N 33°44' W 118°17'0 0.0
2018-May-18 23:59N 33°44' W 118°17'0 0.0
2018-May-18 23:30N 33°44' W 118°17'0 0.0
2018-May-18 22:50N 33°44' W 118°17'0 0.0
2018-May-18 22:22N 33°44' W 118°17'0 0.0
2018-May-18 22:00N 33°44' W 118°17'0 0.0
2018-May-18 21:29N 33°44' W 118°17'0 0.0
2018-May-18 20:59N 33°44' W 118°17'0 0.0
2018-May-18 20:30N 33°44' W 118°17'0 0.0
2018-May-18 20:00N 33°44' W 118°17'0 0.0
2018-May-18 19:30N 33°44' W 118°17'0 0.0
2018-May-18 19:00N 33°44' W 118°17'0 0.0
2018-May-18 18:30N 33°44' W 118°17'0 0.0
2018-May-18 18:00N 33°44' W 118°17'0 0.0
2018-May-18 17:30N 33°44' W 118°17'0 0.0
2018-May-18 17:00N 33°44' W 118°17'0 0.0
2018-May-18 16:30N 33°44' W 118°17'0 0.0
2018-May-18 16:00N 33°44' W 118°17'0 0.0
2018-May-18 15:30N 33°44' W 118°17'0 0.0
2018-May-18 14:58N 33°44' W 118°17'0 0.0
2018-May-18 14:30N 33°44' W 118°17'0 0.0
2018-May-18 14:00N 33°44' W 118°17'0 0.0
2018-May-18 13:30N 33°44' W 118°17'0 0.0
2018-May-18 13:00N 33°44' W 118°17'2 3.8
2018-May-18 12:30N 33°43' W 118°14'3 5.8
2018-May-18 12:00N 33°44' W 118°11'0 1.0
2018-May-18 11:30N 33°44' W 118°11'1 1.4
2018-May-18 11:00N 33°43' W 118°11'1 1.7
2018-May-18 10:30N 33°43' W 118°12'3 6.4
2018-May-18 09:59N 33°43' W 118°16'1 1.2
2018-May-18 09:30N 33°44' W 118°17'0 0.0
2018-May-18 09:00N 33°44' W 118°17'0 0.0
2018-May-18 08:30N 33°44' W 118°17'0 0.0
2018-May-18 07:57N 33°44' W 118°17'0 0.0
2018-May-18 07:30N 33°44' W 118°17'0 0.0
2018-May-18 07:00N 33°44' W 118°17'0 0.0
2018-May-18 06:30N 33°44' W 118°17'0 0.0
2018-May-18 06:00N 33°44' W 118°17'0 0.0
2018-May-18 05:30N 33°44' W 118°17'0 0.0
2018-May-18 05:00N 33°44' W 118°17'0 0.0
2018-May-18 04:30N 33°44' W 118°17'0 0.0
2018-May-18 04:00N 33°44' W 118°17'0 0.0
2018-May-18 03:25N 33°44' W 118°17'0 0.0
2018-May-18 02:59N 33°44' W 118°17'0 0.0
2018-May-18 02:30N 33°44' W 118°17'0 0.0
2018-May-18 02:00N 33°44' W 118°17'0 0.0
2018-May-18 01:30N 33°44' W 118°17'0 0.0
2018-May-18 01:00N 33°44' W 118°17'0 0.0
2018-May-18 00:30N 33°44' W 118°17'0 0.0
2018-May-18 00:00N 33°44' W 118°17'0 0.0
2018-May-17 23:30N 33°44' W 118°17'0 0.0
2018-May-17 23:00N 33°44' W 118°17'1 2.0
2018-May-17 22:29N 33°43' W 118°16'3 6.4
2018-May-17 22:00N 33°45' W 118°12'0 0.7
2018-May-17 21:30N 33°45' W 118°12'3 7.0
2018-May-17 21:00N 33°43' W 118°16'1 1.5
2018-May-17 20:30N 33°44' W 118°17'0 0.0
2018-May-17 20:00N 33°44' W 118°17'0 0.0
2018-May-17 19:30N 33°44' W 118°17'0 0.0
2018-May-17 19:00N 33°44' W 118°17'0 0.0
2018-May-17 18:30N 33°44' W 118°17'0 0.0
2018-May-17 18:00N 33°44' W 118°17'0 0.0
2018-May-17 17:30N 33°44' W 118°17'0 0.0
2018-May-17 16:56N 33°44' W 118°17'0 0.0
2018-May-17 16:30N 33°44' W 118°17'0 0.0
2018-May-17 16:00N 33°44' W 118°17'0 0.0
2018-May-17 15:24N 33°44' W 118°17'0 0.0
2018-May-17 14:59N 33°44' W 118°17'0 0.0
2018-May-17 14:30N 33°44' W 118°17'0 0.0
2018-May-17 14:00N 33°44' W 118°17'0 0.0
2018-May-17 13:30N 33°44' W 118°17'0 0.0
2018-May-17 13:00N 33°44' W 118°17'0 0.0
2018-May-17 12:23N 33°44' W 118°17'0 0.0
2018-May-17 11:49N 33°44' W 118°17'0 0.0
2018-May-17 11:26N 33°44' W 118°17'0 0.0
2018-May-17 10:55N 33°44' W 118°17'0 0.0
2018-May-17 10:27N 33°44' W 118°17'0 0.0
2018-May-17 09:28N 33°44' W 118°17'0 0.0
2018-May-17 08:59N 33°44' W 118°17'0 0.0
2018-May-17 08:30N 33°44' W 118°17'0 0.0
2018-May-17 06:45N 33°44' W 118°17'0 0.0
2018-May-17 06:29N 33°44' W 118°17'0 0.0
2018-May-17 05:58N 33°44' W 118°17'0 0.0
2018-May-17 05:30N 33°44' W 118°17'0 0.0
2018-May-17 04:59N 33°44' W 118°17'0 0.0
2018-May-17 04:27N 33°44' W 118°17'0 0.0
2018-May-17 04:00N 33°44' W 118°17'0 0.0
2018-May-17 03:14N 33°44' W 118°17'0 0.0
2018-May-17 02:57N 33°44' W 118°17'0 0.0
2018-May-17 02:30N 33°44' W 118°17'0 0.0
2018-May-17 02:00N 33°44' W 118°17'0 0.0
2018-May-17 01:25N 33°44' W 118°17'0 0.0
2018-May-17 01:00N 33°44' W 118°17'0 0.0
2018-May-17 00:26N 33°44' W 118°17'0 0.0
2018-May-16 23:59N 33°44' W 118°17'0 0.0
2018-May-16 23:29N 33°44' W 118°17'0 0.0
2018-May-16 23:00N 33°44' W 118°17'3 5.2
2018-May-16 22:30N 33°44' W 118°13'1 2.5
2018-May-16 22:00N 33°45' W 118°14'1 2.1
2018-May-16 21:30N 33°45' W 118°13'2 4.0
2018-May-16 20:59N 33°44' W 118°11'1 2.1
2018-May-16 20:30N 33°44' W 118°12'1 0.9
2018-May-16 19:56N 33°44' W 118°12'0 0.0
2018-May-16 19:30N 33°44' W 118°12'0 0.0
2018-May-16 19:00N 33°44' W 118°12'0 0.0
2018-May-16 18:30N 33°44' W 118°12'0 0.0
2018-May-16 18:00N 33°44' W 118°12'0 0.0
2018-May-16 17:30N 33°44' W 118°12'0 0.0
2018-May-16 17:00N 33°44' W 118°12'0 0.0
2018-May-16 16:30N 33°44' W 118°12'0 0.0
2018-May-16 16:00N 33°44' W 118°12'0 0.0
2018-May-16 15:29N 33°44' W 118°12'0 0.0
2018-May-16 15:00N 33°44' W 118°12'0 0.0
2018-May-16 14:30N 33°44' W 118°12'1 1.4
2018-May-16 13:56N 33°45' W 118°13'0 0.9
2018-May-16 13:30N 33°44' W 118°12'2 3.5
2018-May-16 13:00N 33°44' W 118°10'2 1.9
2018-May-16 12:04N 33°45' W 118°12'0 1.4
2018-May-16 11:56N 33°44' W 118°12'0 0.1
2018-May-16 11:16N 33°44' W 118°12'1 2.4
2018-May-16 11:00N 33°44' W 118°12'0 0.0
2018-May-16 10:30N 33°44' W 118°12'0 0.0
2018-May-16 10:00N 33°44' W 118°12'0 0.0
2018-May-16 09:30N 33°44' W 118°12'0 0.0
2018-May-16 08:56N 33°44' W 118°12'0 0.0
2018-May-16 08:30N 33°44' W 118°12'0 0.1
2018-May-16 07:59N 33°44' W 118°12'0 0.0
2018-May-16 07:28N 33°44' W 118°12'0 0.0
2018-May-16 07:00N 33°44' W 118°12'3 1.5
2018-May-16 04:54N 33°42' W 118°14'3 5.4
2018-May-16 04:25N 33°44' W 118°17'0 0.0
2018-May-16 03:40N 33°44' W 118°17'0 0.0
2018-May-16 02:56N 33°44' W 118°17'0 0.0
2018-May-16 02:30N 33°44' W 118°17'0 0.0
2018-May-16 02:00N 33°44' W 118°17'0 0.0
2018-May-16 01:30N 33°44' W 118°17'0 0.0
2018-May-16 01:00N 33°44' W 118°17'0 0.0
2018-May-16 00:27N 33°44' W 118°17'0 0.0
2018-May-16 00:00N 33°44' W 118°17'0 0.0
2018-May-15 23:30N 33°44' W 118°17'0 0.0
2018-May-15 22:59N 33°44' W 118°17'0 0.0
2018-May-15 22:28N 33°44' W 118°17'0 0.0
2018-May-15 22:00N 33°44' W 118°17'0 0.0
2018-May-15 21:30N 33°44' W 118°17'0 0.0
2018-May-15 21:00N 33°44' W 118°17'0 0.0
2018-May-15 20:30N 33°44' W 118°17'0 0.0
2018-May-15 20:00N 33°44' W 118°17'0 0.0
2018-May-15 19:30N 33°44' W 118°17'0 0.0
2018-May-15 19:00N 33°44' W 118°17'0 0.0
2018-May-15 18:30N 33°44' W 118°17'0 0.0
2018-May-15 17:59N 33°44' W 118°17'0 0.0
2018-May-15 17:30N 33°44' W 118°17'0 0.0
2018-May-15 17:00N 33°44' W 118°17'0 0.0
2018-May-15 16:29N 33°44' W 118°17'0 0.0
2018-May-15 16:00N 33°44' W 118°17'0 0.0
2018-May-15 15:30N 33°44' W 118°17'0 0.0
2018-May-15 15:00N 33°44' W 118°17'0 0.0
2018-May-15 14:30N 33°44' W 118°17'0 0.2
2018-May-15 14:00N 33°44' W 118°16'0 0.0
2018-May-15 13:30N 33°44' W 118°16'1 1.5
2018-May-15 13:00N 33°44' W 118°16'0 1.0
2018-May-15 12:30N 33°44' W 118°15'1 1.5
2018-May-15 12:00N 33°44' W 118°16'2 4.2
2018-May-15 11:29N 33°42' W 118°14'1 2.1
2018-May-15 10:57N 33°43' W 118°15'2 3.1
2018-May-15 10:25N 33°44' W 118°17'0 0.0
2018-May-15 09:08N 33°44' W 118°17'0 0.0
2018-May-15 03:35N 33°44' W 118°17'0 0.0
2018-May-15 03:30N 33°44' W 118°17'0 0.0
2018-May-15 02:56N 33°44' W 118°17'0 0.0
2018-May-15 02:30N 33°44' W 118°17'2 4.0
2018-May-15 02:00N 33°46' W 118°16'2 4.1
2018-May-15 01:30N 33°45' W 118°13'0 0.1
2018-May-15 01:00N 33°45' W 118°13'1 2.5
2018-May-15 00:30N 33°44' W 118°12'2 3.0
2018-May-15 00:00N 33°43' W 118°11'1 3.0
2018-May-14 23:30N 33°44' W 118°13'1 2.0
2018-May-14 23:00N 33°45' W 118°13'0 0.0
2018-May-14 22:30N 33°45' W 118°13'0 0.0
2018-May-14 22:00N 33°45' W 118°13'0 0.0
2018-May-14 21:29N 33°45' W 118°13'0 0.0
2018-May-14 21:00N 33°45' W 118°13'3 0.5
2018-May-14 14:55N 33°44' W 118°17'0 0.0
2018-May-14 14:30N 33°44' W 118°17'0 0.0
2018-May-14 14:00N 33°44' W 118°17'0 0.0
2018-May-14 13:30N 33°44' W 118°17'0 0.0
2018-May-14 13:00N 33°44' W 118°17'0 0.0
2018-May-14 08:28N 33°44' W 118°17'0 0.0
2018-May-14 07:58N 33°44' W 118°17'0 0.0
2018-May-14 07:18N 33°44' W 118°17'0 0.0
2018-May-14 03:24N 33°44' W 118°17'2 4.6
2018-May-14 03:00N 33°46' W 118°17'0 0.7
2018-May-14 02:30N 33°45' W 118°16'2 4.3
2018-May-14 02:00N 33°43' W 118°16'0 0.9
2018-May-14 01:30N 33°43' W 118°16'1 1.5
2018-May-14 00:59N 33°44' W 118°16'0 0.0
2018-May-14 00:30N 33°44' W 118°16'0 0.1
2018-May-14 00:00N 33°44' W 118°16'0 0.3
2018-May-13 23:30N 33°44' W 118°15'0 0.5
2018-May-13 23:00N 33°44' W 118°16'2 4.0
2018-May-13 22:28N 33°43' W 118°13'1 3.1
2018-May-13 22:00N 33°44' W 118°12'0 0.9
2018-May-13 21:30N 33°44' W 118°12'3 6.7
2018-May-13 21:00N 33°44' W 118°16'0 0.2
2018-May-13 20:30N 33°44' W 118°17'0 0.0
2018-May-13 20:00N 33°44' W 118°17'0 0.0
2018-May-13 19:30N 33°44' W 118°17'0 0.0
2018-May-13 18:55N 33°44' W 118°17'0 0.0
2018-May-13 18:30N 33°44' W 118°17'0 0.0
2018-May-13 17:58N 33°44' W 118°17'0 0.0
2018-May-13 17:30N 33°44' W 118°17'0 0.0
2018-May-13 16:59N 33°44' W 118°17'0 0.0
2018-May-13 16:30N 33°44' W 118°17'0 0.0
2018-May-13 16:00N 33°44' W 118°17'0 0.0
2018-May-13 15:29N 33°44' W 118°17'0 0.0
2018-May-13 15:00N 33°44' W 118°17'0 0.0
2018-May-13 14:30N 33°44' W 118°17'0 0.0
2018-May-13 14:00N 33°44' W 118°17'0 0.0
2018-May-13 13:30N 33°44' W 118°17'1 2.2
2018-May-13 13:00N 33°45' W 118°16'0 0.5
2018-May-13 12:30N 33°45' W 118°16'1 2.8
2018-May-13 11:59N 33°44' W 118°16'2 3.6
2018-May-13 11:30N 33°43' W 118°14'2 1.6
2018-May-13 10:15N 33°44' W 118°17'0 0.0
2018-May-13 10:00N 33°44' W 118°17'0 0.0
2018-May-13 09:21N 33°44' W 118°17'0 0.0
2018-May-13 08:22N 33°44' W 118°17'0 0.0
2018-May-13 08:00N 33°44' W 118°17'0 0.0
2018-May-13 07:30N 33°44' W 118°17'0 0.0
2018-May-13 06:51N 33°44' W 118°17'0 0.0
2018-May-13 06:26N 33°44' W 118°17'0 0.0
2018-May-13 03:46N 33°44' W 118°17'0 0.0
2018-May-13 03:17N 33°44' W 118°17'0 0.0
2018-May-13 02:54N 33°44' W 118°17'0 0.0
2018-May-13 02:30N 33°44' W 118°17'0 0.0
2018-May-13 02:00N 33°44' W 118°17'0 0.0
2018-May-13 01:29N 33°44' W 118°17'0 0.0
2018-May-13 01:00N 33°44' W 118°17'0 0.0
2018-May-13 00:30N 33°44' W 118°17'0 0.0
2018-May-13 00:00N 33°44' W 118°17'0 0.0
2018-May-12 23:17N 33°44' W 118°17'0 0.0
2018-May-12 22:58N 33°44' W 118°17'0 0.0
2018-May-12 22:30N 33°44' W 118°17'0 0.0
2018-May-12 22:00N 33°44' W 118°17'0 0.0
2018-May-12 21:30N 33°44' W 118°17'0 0.0
2018-May-12 21:00N 33°44' W 118°17'0 0.0
2018-May-12 20:30N 33°44' W 118°17'0 0.0
2018-May-12 20:00N 33°44' W 118°17'0 0.0
2018-May-12 19:30N 33°44' W 118°17'  
Track history (hours):
 
Tides and Currents Weather Stations Pressure Air Temp Water Temp Dewpoint Dewpoint Depression Visibility Wind Speed Wind Dir Waves Ship Positions

Independence

Owner: AMNAV Maritime Corporation, Oakland, CA. More information available from US FCC via Universal Licensing System and Coast Guard Vessel Documentation Center.

Last reported at 2018-May-22 19:00 UTC. Time now 2018-May-22 19:08 UTC.
Position N 33°44' W 118°17'.

Length 24 m; draft 4.9 m.

Type: Tug. MMSI: 367175860.

Date/timePositionNaut miles runAvg speedWind from/ knotsBaromVisibWave heightAir tempDewpointWater temp
2018-May-22 19:00N 33°44' W 118°17'0 0.0
2018-May-22 18:30N 33°44' W 118°17'0 0.0
2018-May-22 18:00N 33°44' W 118°17'0 0.0
2018-May-22 17:30N 33°44' W 118°17'0 0.0
2018-May-22 17:00N 33°44' W 118°17'0 0.0
2018-May-22 16:29N 33°44' W 118°17'0 0.0
2018-May-22 16:00N 33°44' W 118°17'0 0.0
2018-May-22 15:30N 33°44' W 118°17'0 0.0
2018-May-22 15:00N 33°44' W 118°17'0 0.0
2018-May-22 14:30N 33°44' W 118°17'3 5.4
2018-May-22 14:00N 33°44' W 118°13'1 2.3
2018-May-22 13:30N 33°45' W 118°13'1 1.7
2018-May-22 13:00N 33°44' W 118°12'1 2.9
2018-May-22 12:30N 33°44' W 118°11'3 5.6
2018-May-22 12:00N 33°46' W 118°13'1 1.5
2018-May-22 11:30N 33°46' W 118°13'2 3.6
2018-May-22 11:00N 33°44' W 118°13'1 2.7
2018-May-22 10:30N 33°43' W 118°12'3 5.5
2018-May-22 09:59N 33°43' W 118°15'2 3.2
2018-May-22 09:28N 33°44' W 118°17'0 0.0
2018-May-22 08:54N 33°44' W 118°17'0 0.0
2018-May-22 08:27N 33°44' W 118°17'0 0.0
2018-May-22 07:56N 33°44' W 118°17'0 0.0
2018-May-22 06:32N 33°44' W 118°17'0 0.0
2018-May-22 06:26N 33°44' W 118°17'0 0.0
2018-May-22 04:27N 33°44' W 118°17'0 0.0
2018-May-22 03:59N 33°44' W 118°17'0 0.0
2018-May-22 03:29N 33°44' W 118°17'0 0.0
2018-May-22 03:00N 33°44' W 118°17'0 0.0
2018-May-22 02:29N 33°44' W 118°17'0 0.0
2018-May-22 02:00N 33°44' W 118°17'0 0.0
2018-May-22 01:30N 33°44' W 118°17'0 0.0
2018-May-22 01:00N 33°44' W 118°17'2 4.9
2018-May-22 00:30N 33°44' W 118°14'2 4.5
2018-May-22 00:00N 33°43' W 118°16'2 4.7
2018-May-21 23:31N 33°46' W 118°16'1 1.5
2018-May-21 23:01N 33°46' W 118°15'2 3.3
2018-May-21 22:29N 33°45' W 118°16'0 1.0
2018-May-21 22:00N 33°45' W 118°16'1 2.4
2018-May-21 21:30N 33°44' W 118°16'2 4.8
2018-May-21 21:00N 33°42' W 118°15'1 2.1
2018-May-21 20:30N 33°43' W 118°15'1 2.6
2018-May-21 20:00N 33°44' W 118°17'0 0.0
2018-May-21 19:30N 33°44' W 118°17'0 0.0
2018-May-21 19:00N 33°44' W 118°17'0 0.0
2018-May-21 18:30N 33°44' W 118°17'0 0.0
2018-May-21 18:00N 33°44' W 118°17'0 0.0
2018-May-21 17:26N 33°44' W 118°17'0 0.0
2018-May-21 17:00N 33°44' W 118°17'0 0.0
2018-May-21 16:28N 33°44' W 118°17'0 0.0
2018-May-21 16:00N 33°44' W 118°17'0 0.0
2018-May-21 15:28N 33°44' W 118°17'0 0.0
2018-May-21 15:00N 33°44' W 118°17'0 0.0
2018-May-21 14:24N 33°44' W 118°17'0 0.0
2018-May-21 14:00N 33°44' W 118°17'0 0.0
2018-May-21 13:30N 33°44' W 118°17'1 2.3
2018-May-21 12:58N 33°43' W 118°15'4 8.6
2018-May-21 12:30N 33°44' W 118°11'1 1.0
2018-May-21 11:59N 33°44' W 118°11'0 0.8
2018-May-21 11:30N 33°44' W 118°11'4 8.0
2018-May-21 11:00N 33°43' W 118°16'1 1.2
2018-May-21 10:30N 33°44' W 118°17'0 0.0
2018-May-21 10:00N 33°44' W 118°17'0 0.0
2018-May-21 09:30N 33°44' W 118°17'0 0.0
2018-May-21 09:00N 33°44' W 118°17'0 0.0
2018-May-21 08:28N 33°44' W 118°17'0 0.0
2018-May-21 07:48N 33°44' W 118°17'0 0.0
2018-May-21 07:30N 33°44' W 118°17'0 0.0
2018-May-21 06:04N 33°44' W 118°17'0 0.0
2018-May-21 05:53N 33°44' W 118°17'0 0.0
2018-May-21 05:19N 33°44' W 118°17'0 0.0
2018-May-21 04:56N 33°44' W 118°17'0 0.0
2018-May-21 04:30N 33°44' W 118°17'0 0.0
2018-May-21 03:59N 33°44' W 118°17'0 0.0
2018-May-21 03:26N 33°44' W 118°17'0 0.0
2018-May-21 03:00N 33°44' W 118°17'0 0.0
2018-May-21 02:30N 33°44' W 118°17'0 0.0
2018-May-21 01:55N 33°44' W 118°17'0 0.0
2018-May-21 01:29N 33°44' W 118°17'0 0.0
2018-May-21 01:00N 33°44' W 118°17'0 0.0
2018-May-21 00:30N 33°44' W 118°17'0 0.0
2018-May-21 00:00N 33°44' W 118°17'0 0.0
2018-May-20 23:29N 33°44' W 118°17'0 0.0
2018-May-20 23:00N 33°44' W 118°17'0 0.0
2018-May-20 22:30N 33°44' W 118°17'0 0.0
2018-May-20 22:00N 33°44' W 118°17'0 0.0
2018-May-20 21:30N 33°44' W 118°17'0 0.0
2018-May-20 20:59N 33°44' W 118°17'0 0.0
2018-May-20 20:30N 33°44' W 118°17'0 0.0
2018-May-20 20:00N 33°44' W 118°17'0 0.0
2018-May-20 19:30N 33°44' W 118°17'0 0.0
2018-May-20 19:00N 33°44' W 118°17'0 0.0
2018-May-20 18:27N 33°44' W 118°17'0 0.0
2018-May-20 17:59N 33°44' W 118°17'0 0.0
2018-May-20 17:30N 33°44' W 118°17'0 0.0
2018-May-20 17:00N 33°44' W 118°17'0 0.0
2018-May-20 16:30N 33°44' W 118°17'0 0.0
2018-May-20 16:00N 33°44' W 118°17'0 0.0
2018-May-20 15:28N 33°44' W 118°17'0 0.0
2018-May-20 15:00N 33°44' W 118°17'0 0.0
2018-May-20 14:05N 33°44' W 118°17'0 0.0
2018-May-20 14:00N 33°44' W 118°17'1 2.6
2018-May-20 13:30N 33°45' W 118°16'1 1.3
2018-May-20 13:00N 33°46' W 118°16'1 1.8
2018-May-20 12:30N 33°45' W 118°16'1 1.1
2018-May-20 12:00N 33°44' W 118°17'2 4.4
2018-May-20 11:30N 33°43' W 118°15'2 3.6
2018-May-20 11:00N 33°44' W 118°16'0 0.3
2018-May-20 10:30N 33°44' W 118°17'0 0.0
2018-May-20 09:56N 33°44' W 118°17'0 0.0
2018-May-20 09:30N 33°44' W 118°17'0 0.0
2018-May-20 08:57N 33°44' W 118°17'0 0.0
2018-May-20 08:25N 33°44' W 118°17'0 0.0
2018-May-20 07:43N 33°44' W 118°17'0 0.0
2018-May-20 07:28N 33°44' W 118°17'0 0.0
2018-May-20 06:59N 33°44' W 118°17'0 0.0
2018-May-20 06:30N 33°44' W 118°17'0 0.0
2018-May-20 05:27N 33°44' W 118°17'0 0.0
2018-May-20 04:57N 33°44' W 118°17'0 0.0
2018-May-20 04:29N 33°44' W 118°17'0 0.0
2018-May-20 03:58N 33°44' W 118°17'0 0.0
2018-May-20 03:30N 33°44' W 118°17'0 0.0
2018-May-20 03:00N 33°44' W 118°17'0 0.0
2018-May-20 02:30N 33°44' W 118°17'0 0.0
2018-May-20 02:00N 33°44' W 118°17'1 1.6
2018-May-20 01:30N 33°43' W 118°16'1 1.8
2018-May-20 01:00N 33°44' W 118°15'0 0.2
2018-May-20 00:30N 33°44' W 118°15'0 0.0
2018-May-20 00:00N 33°44' W 118°15'0 0.0
2018-May-19 23:30N 33°44' W 118°15'1 2.7
2018-May-19 23:00N 33°43' W 118°16'2 3.2
2018-May-19 22:30N 33°45' W 118°16'1 1.9
2018-May-19 22:00N 33°44' W 118°16'0 0.4
2018-May-19 21:26N 33°44' W 118°17'0 0.0
2018-May-19 21:00N 33°44' W 118°17'0 0.0
2018-May-19 20:30N 33°44' W 118°17'0 0.0
2018-May-19 19:44N 33°44' W 118°17'0 0.0
2018-May-19 19:30N 33°44' W 118°17'0 0.0
2018-May-19 19:00N 33°44' W 118°17'0 0.0
2018-May-19 18:30N 33°44' W 118°17'0 0.0
2018-May-19 18:00N 33°44' W 118°17'0 0.0
2018-May-19 17:30N 33°44' W 118°17'0 0.0
2018-May-19 17:00N 33°44' W 118°17'0 0.0
2018-May-19 16:30N 33°44' W 118°17'0 0.0
2018-May-19 16:00N 33°44' W 118°17'0 0.0
2018-May-19 15:30N 33°44' W 118°17'0 0.0
2018-May-19 15:00N 33°44' W 118°17'0 0.0
2018-May-19 14:30N 33°44' W 118°17'0 0.0
2018-May-19 14:00N 33°44' W 118°17'0 0.0
2018-May-19 13:29N 33°44' W 118°17'1 1.3
2018-May-19 13:00N 33°43' W 118°16'2 4.7
2018-May-19 12:30N 33°46' W 118°17'0 0.1
2018-May-19 12:00N 33°46' W 118°17'0 0.1
2018-May-19 11:30N 33°46' W 118°17'0 0.0
2018-May-19 11:00N 33°46' W 118°17'0 0.9
2018-May-19 10:30N 33°45' W 118°16'1 2.6
2018-May-19 09:57N 33°44' W 118°17'0 0.0
2018-May-19 09:25N 33°44' W 118°17'0 0.0
2018-May-19 08:48N 33°44' W 118°17'0 0.0
2018-May-19 08:21N 33°44' W 118°17'0 0.0
2018-May-19 07:54N 33°44' W 118°17'0 0.0
2018-May-19 07:23N 33°44' W 118°17'0 0.0
2018-May-19 07:00N 33°44' W 118°17'0 0.0
2018-May-19 06:29N 33°44' W 118°17'0 0.0
2018-May-19 05:59N 33°44' W 118°17'0 0.0
2018-May-19 05:29N 33°44' W 118°17'0 0.0
2018-May-19 05:00N 33°44' W 118°17'0 0.0
2018-May-19 03:17N 33°44' W 118°17'0 0.0
2018-May-19 02:58N 33°44' W 118°17'0 0.0
2018-May-19 02:30N 33°44' W 118°17'0 0.0
2018-May-19 02:00N 33°44' W 118°17'0 0.0
2018-May-19 01:30N 33°44' W 118°17'0 0.0
2018-May-19 00:57N 33°44' W 118°17'0 0.0
2018-May-19 00:30N 33°44' W 118°17'0 0.0
2018-May-18 23:59N 33°44' W 118°17'0 0.0
2018-May-18 23:30N 33°44' W 118°17'0 0.0
2018-May-18 22:50N 33°44' W 118°17'0 0.0
2018-May-18 22:22N 33°44' W 118°17'0 0.0
2018-May-18 22:00N 33°44' W 118°17'0 0.0
2018-May-18 21:29N 33°44' W 118°17'0 0.0
2018-May-18 20:59N 33°44' W 118°17'0 0.0
2018-May-18 20:30N 33°44' W 118°17'0 0.0
2018-May-18 20:00N 33°44' W 118°17'0 0.0
2018-May-18 19:30N 33°44' W 118°17'0 0.0
2018-May-18 19:00N 33°44' W 118°17'0 0.0
2018-May-18 18:30N 33°44' W 118°17'0 0.0
2018-May-18 18:00N 33°44' W 118°17'0 0.0
2018-May-18 17:30N 33°44' W 118°17'0 0.0
2018-May-18 17:00N 33°44' W 118°17'0 0.0
2018-May-18 16:30N 33°44' W 118°17'0 0.0
2018-May-18 16:00N 33°44' W 118°17'0 0.0
2018-May-18 15:30N 33°44' W 118°17'0 0.0
2018-May-18 14:58N 33°44' W 118°17'0 0.0
2018-May-18 14:30N 33°44' W 118°17'0 0.0
2018-May-18 14:00N 33°44' W 118°17'0 0.0
2018-May-18 13:30N 33°44' W 118°17'0 0.0
2018-May-18 13:00N 33°44' W 118°17'2 3.8
2018-May-18 12:30N 33°43' W 118°14'3 5.8
2018-May-18 12:00N 33°44' W 118°11'0 1.0
2018-May-18 11:30N 33°44' W 118°11'1 1.4
2018-May-18 11:00N 33°43' W 118°11'1 1.7
2018-May-18 10:30N 33°43' W 118°12'3 6.4
2018-May-18 09:59N 33°43' W 118°16'1 1.2
2018-May-18 09:30N 33°44' W 118°17'0 0.0
2018-May-18 09:00N 33°44' W 118°17'0 0.0
2018-May-18 08:30N 33°44' W 118°17'0 0.0
2018-May-18 07:57N 33°44' W 118°17'0 0.0
2018-May-18 07:30N 33°44' W 118°17'0 0.0
2018-May-18 07:00N 33°44' W 118°17'0 0.0
2018-May-18 06:30N 33°44' W 118°17'0 0.0
2018-May-18 06:00N 33°44' W 118°17'0 0.0
2018-May-18 05:30N 33°44' W 118°17'0 0.0
2018-May-18 05:00N 33°44' W 118°17'0 0.0
2018-May-18 04:30N 33°44' W 118°17'0 0.0
2018-May-18 04:00N 33°44' W 118°17'0 0.0
2018-May-18 03:25N 33°44' W 118°17'0 0.0
2018-May-18 02:59N 33°44' W 118°17'0 0.0
2018-May-18 02:30N 33°44' W 118°17'0 0.0
2018-May-18 02:00N 33°44' W 118°17'0 0.0
2018-May-18 01:30N 33°44' W 118°17'0 0.0
2018-May-18 01:00N 33°44' W 118°17'0 0.0
2018-May-18 00:30N 33°44' W 118°17'0 0.0
2018-May-18 00:00N 33°44' W 118°17'0 0.0
2018-May-17 23:30N 33°44' W 118°17'0 0.0
2018-May-17 23:00N 33°44' W 118°17'1 2.0
2018-May-17 22:29N 33°43' W 118°16'3 6.4
2018-May-17 22:00N 33°45' W 118°12'0 0.7
2018-May-17 21:30N 33°45' W 118°12'3 7.0
2018-May-17 21:00N 33°43' W 118°16'1 1.5
2018-May-17 20:30N 33°44' W 118°17'0 0.0
2018-May-17 20:00N 33°44' W 118°17'0 0.0
2018-May-17 19:30N 33°44' W 118°17'0 0.0
2018-May-17 19:00N 33°44' W 118°17'0 0.0
2018-May-17 18:30N 33°44' W 118°17'0 0.0
2018-May-17 18:00N 33°44' W 118°17'0 0.0
2018-May-17 17:30N 33°44' W 118°17'0 0.0
2018-May-17 16:56N 33°44' W 118°17'0 0.0
2018-May-17 16:30N 33°44' W 118°17'0 0.0
2018-May-17 16:00N 33°44' W 118°17'0 0.0
2018-May-17 15:24N 33°44' W 118°17'0 0.0
2018-May-17 14:59N 33°44' W 118°17'0 0.0
2018-May-17 14:30N 33°44' W 118°17'0 0.0
2018-May-17 14:00N 33°44' W 118°17'0 0.0
2018-May-17 13:30N 33°44' W 118°17'0 0.0
2018-May-17 13:00N 33°44' W 118°17'0 0.0
2018-May-17 12:23N 33°44' W 118°17'0 0.0
2018-May-17 11:49N 33°44' W 118°17'0 0.0
2018-May-17 11:26N 33°44' W 118°17'0 0.0
2018-May-17 10:55N 33°44' W 118°17'0 0.0
2018-May-17 10:27N 33°44' W 118°17'0 0.0
2018-May-17 09:28N 33°44' W 118°17'0 0.0
2018-May-17 08:59N 33°44' W 118°17'0 0.0
2018-May-17 08:30N 33°44' W 118°17'0 0.0
2018-May-17 06:45N 33°44' W 118°17'0 0.0
2018-May-17 06:29N 33°44' W 118°17'0 0.0
2018-May-17 05:58N 33°44' W 118°17'0 0.0
2018-May-17 05:30N 33°44' W 118°17'0 0.0
2018-May-17 04:59N 33°44' W 118°17'0 0.0
2018-May-17 04:27N 33°44' W 118°17'0 0.0
2018-May-17 04:00N 33°44' W 118°17'0 0.0
2018-May-17 03:14N 33°44' W 118°17'0 0.0
2018-May-17 02:57N 33°44' W 118°17'0 0.0
2018-May-17 02:30N 33°44' W 118°17'0 0.0
2018-May-17 02:00N 33°44' W 118°17'0 0.0
2018-May-17 01:25N 33°44' W 118°17'0 0.0
2018-May-17 01:00N 33°44' W 118°17'0 0.0
2018-May-17 00:26N 33°44' W 118°17'0 0.0
2018-May-16 23:59N 33°44' W 118°17'0 0.0
2018-May-16 23:29N 33°44' W 118°17'0 0.0
2018-May-16 23:00N 33°44' W 118°17'3 5.2
2018-May-16 22:30N 33°44' W 118°13'1 2.5
2018-May-16 22:00N 33°45' W 118°14'1 2.1
2018-May-16 21:30N 33°45' W 118°13'2 4.0
2018-May-16 20:59N 33°44' W 118°11'1 2.1
2018-May-16 20:30N 33°44' W 118°12'1 0.9
2018-May-16 19:56N 33°44' W 118°12'0 0.0
2018-May-16 19:30N 33°44' W 118°12'0 0.0
2018-May-16 19:00N 33°44' W 118°12'0 0.0
2018-May-16 18:30N 33°44' W 118°12'0 0.0
2018-May-16 18:00N 33°44' W 118°12'0 0.0
2018-May-16 17:30N 33°44' W 118°12'0 0.0
2018-May-16 17:00N 33°44' W 118°12'0 0.0
2018-May-16 16:30N 33°44' W 118°12'0 0.0
2018-May-16 16:00N 33°44' W 118°12'0 0.0
2018-May-16 15:29N 33°44' W 118°12'0 0.0
2018-May-16 15:00N 33°44' W 118°12'0 0.0
2018-May-16 14:30N 33°44' W 118°12'1 1.4
2018-May-16 13:56N 33°45' W 118°13'0 0.9
2018-May-16 13:30N 33°44' W 118°12'2 3.5
2018-May-16 13:00N 33°44' W 118°10'2 1.9
2018-May-16 12:04N 33°45' W 118°12'0 1.4
2018-May-16 11:56N 33°44' W 118°12'0 0.1
2018-May-16 11:16N 33°44' W 118°12'1 2.4
2018-May-16 11:00N 33°44' W 118°12'0 0.0
2018-May-16 10:30N 33°44' W 118°12'0 0.0
2018-May-16 10:00N 33°44' W 118°12'0 0.0
2018-May-16 09:30N 33°44' W 118°12'0 0.0
2018-May-16 08:56N 33°44' W 118°12'0 0.0
2018-May-16 08:30N 33°44' W 118°12'0 0.1
2018-May-16 07:59N 33°44' W 118°12'0 0.0
2018-May-16 07:28N 33°44' W 118°12'0 0.0
2018-May-16 07:00N 33°44' W 118°12'3 1.5
2018-May-16 04:54N 33°42' W 118°14'3 5.4
2018-May-16 04:25N 33°44' W 118°17'0 0.0
2018-May-16 03:40N 33°44' W 118°17'0 0.0
2018-May-16 02:56N 33°44' W 118°17'0 0.0
2018-May-16 02:30N 33°44' W 118°17'0 0.0
2018-May-16 02:00N 33°44' W 118°17'0 0.0
2018-May-16 01:30N 33°44' W 118°17'0 0.0
2018-May-16 01:00N 33°44' W 118°17'0 0.0
2018-May-16 00:27N 33°44' W 118°17'0 0.0
2018-May-16 00:00N 33°44' W 118°17'0 0.0
2018-May-15 23:30N 33°44' W 118°17'0 0.0
2018-May-15 22:59N 33°44' W 118°17'0 0.0
2018-May-15 22:28N 33°44' W 118°17'0 0.0
2018-May-15 22:00N 33°44' W 118°17'0 0.0
2018-May-15 21:30N 33°44' W 118°17'0 0.0
2018-May-15 21:00N 33°44' W 118°17'0 0.0
2018-May-15 20:30N 33°44' W 118°17'0 0.0
2018-May-15 20:00N 33°44' W 118°17'0 0.0
2018-May-15 19:30N 33°44' W 118°17'0 0.0
2018-May-15 19:00N 33°44' W 118°17'0 0.0
2018-May-15 18:30N 33°44' W 118°17'0 0.0
2018-May-15 17:59N 33°44' W 118°17'0 0.0
2018-May-15 17:30N 33°44' W 118°17'0 0.0
2018-May-15 17:00N 33°44' W 118°17'0 0.0
2018-May-15 16:29N 33°44' W 118°17'0 0.0
2018-May-15 16:00N 33°44' W 118°17'0 0.0
2018-May-15 15:30N 33°44' W 118°17'0 0.0
2018-May-15 15:00N 33°44' W 118°17'0 0.0
2018-May-15 14:30N 33°44' W 118°17'0 0.2
2018-May-15 14:00N 33°44' W 118°16'0 0.0
2018-May-15 13:30N 33°44' W 118°16'1 1.5
2018-May-15 13:00N 33°44' W 118°16'0 1.0
2018-May-15 12:30N 33°44' W 118°15'1 1.5
2018-May-15 12:00N 33°44' W 118°16'2 4.2
2018-May-15 11:29N 33°42' W 118°14'1 2.1
2018-May-15 10:57N 33°43' W 118°15'2 3.1
2018-May-15 10:25N 33°44' W 118°17'0 0.0
2018-May-15 09:08N 33°44' W 118°17'0 0.0
2018-May-15 03:35N 33°44' W 118°17'0 0.0
2018-May-15 03:30N 33°44' W 118°17'0 0.0
2018-May-15 02:56N 33°44' W 118°17'0 0.0
2018-May-15 02:30N 33°44' W 118°17'2 4.0
2018-May-15 02:00N 33°46' W 118°16'2 4.1
2018-May-15 01:30N 33°45' W 118°13'0 0.1
2018-May-15 01:00N 33°45' W 118°13'1 2.5
2018-May-15 00:30N 33°44' W 118°12'2 3.0
2018-May-15 00:00N 33°43' W 118°11'1 3.0
2018-May-14 23:30N 33°44' W 118°13'1 2.0
2018-May-14 23:00N 33°45' W 118°13'0 0.0
2018-May-14 22:30N 33°45' W 118°13'0 0.0
2018-May-14 22:00N 33°45' W 118°13'0 0.0
2018-May-14 21:29N 33°45' W 118°13'0 0.0
2018-May-14 21:00N 33°45' W 118°13'3 0.5
2018-May-14 14:55N 33°44' W 118°17'0 0.0
2018-May-14 14:30N 33°44' W 118°17'0 0.0
2018-May-14 14:00N 33°44' W 118°17'0 0.0
2018-May-14 13:30N 33°44' W 118°17'0 0.0
2018-May-14 13:00N 33°44' W 118°17'0 0.0
2018-May-14 08:28N 33°44' W 118°17'0 0.0
2018-May-14 07:58N 33°44' W 118°17'0 0.0
2018-May-14 07:18N 33°44' W 118°17'0 0.0
2018-May-14 03:24N 33°44' W 118°17'2 4.6
2018-May-14 03:00N 33°46' W 118°17'0 0.7
2018-May-14 02:30N 33°45' W 118°16'2 4.3
2018-May-14 02:00N 33°43' W 118°16'0 0.9
2018-May-14 01:30N 33°43' W 118°16'1 1.5
2018-May-14 00:59N 33°44' W 118°16'0 0.0
2018-May-14 00:30N 33°44' W 118°16'0 0.1
2018-May-14 00:00N 33°44' W 118°16'0 0.3
2018-May-13 23:30N 33°44' W 118°15'0 0.5
2018-May-13 23:00N 33°44' W 118°16'2 4.0
2018-May-13 22:28N 33°43' W 118°13'1 3.1
2018-May-13 22:00N 33°44' W 118°12'0 0.9
2018-May-13 21:30N 33°44' W 118°12'3 6.7
2018-May-13 21:00N 33°44' W 118°16'0 0.2
2018-May-13 20:30N 33°44' W 118°17'0 0.0
2018-May-13 20:00N 33°44' W 118°17'0 0.0
2018-May-13 19:30N 33°44' W 118°17'0 0.0
2018-May-13 18:55N 33°44' W 118°17'0 0.0
2018-May-13 18:30N 33°44' W 118°17'0 0.0
2018-May-13 17:58N 33°44' W 118°17'0 0.0
2018-May-13 17:30N 33°44' W 118°17'0 0.0
2018-May-13 16:59N 33°44' W 118°17'0 0.0
2018-May-13 16:30N 33°44' W 118°17'0 0.0
2018-May-13 16:00N 33°44' W 118°17'0 0.0
2018-May-13 15:29N 33°44' W 118°17'0 0.0
2018-May-13 15:00N 33°44' W 118°17'0 0.0
2018-May-13 14:30N 33°44' W 118°17'0 0.0
2018-May-13 14:00N 33°44' W 118°17'0 0.0
2018-May-13 13:30N 33°44' W 118°17'1 2.2
2018-May-13 13:00N 33°45' W 118°16'0 0.5
2018-May-13 12:30N 33°45' W 118°16'1 2.8
2018-May-13 11:59N 33°44' W 118°16'2 3.6
2018-May-13 11:30N 33°43' W 118°14'2 1.6
2018-May-13 10:15N 33°44' W 118°17'0 0.0
2018-May-13 10:00N 33°44' W 118°17'0 0.0
2018-May-13 09:21N 33°44' W 118°17'0 0.0
2018-May-13 08:22N 33°44' W 118°17'0 0.0
2018-May-13 08:00N 33°44' W 118°17'0 0.0
2018-May-13 07:30N 33°44' W 118°17'0 0.0
2018-May-13 06:51N 33°44' W 118°17'0 0.0
2018-May-13 06:26N 33°44' W 118°17'0 0.0
2018-May-13 03:46N 33°44' W 118°17'0 0.0
2018-May-13 03:17N 33°44' W 118°17'0 0.0
2018-May-13 02:54N 33°44' W 118°17'0 0.0
2018-May-13 02:30N 33°44' W 118°17'0 0.0
2018-May-13 02:00N 33°44' W 118°17'0 0.0
2018-May-13 01:29N 33°44' W 118°17'0 0.0
2018-May-13 01:00N 33°44' W 118°17'0 0.0
2018-May-13 00:30N 33°44' W 118°17'0 0.0
2018-May-13 00:00N 33°44' W 118°17'0 0.0
2018-May-12 23:17N 33°44' W 118°17'0 0.0
2018-May-12 22:58N 33°44' W 118°17'0 0.0
2018-May-12 22:30N 33°44' W 118°17'0 0.0
2018-May-12 22:00N 33°44' W 118°17'0 0.0
2018-May-12 21:30N 33°44' W 118°17'0 0.0
2018-May-12 21:00N 33°44' W 118°17'0 0.0
2018-May-12 20:30N 33°44' W 118°17'0 0.0
2018-May-12 20:00N 33°44' W 118°17'0 0.0
2018-May-12 19:30N 33°44' W 118°17'  

Dump ship's entire track history